Time;durP1;ratioP1;P1;durP2;ratioP2;P2;SDS_P1;SDS_P2;PMS_P1;PMS_P2;Temp;Humidity;BMP_temperature;BMP_pressure;BME280_temperature;BME280_humidity;BME280_pressure;Samples;Min_cycle;Max_cycle;Signal;HPM_P1;HPM_P2
2021/11/02 00:02:15;;;;;;;44.90;33.70;;;;;;;9.18;79.80;97683.36;112446;1184;61049;-77
2021/11/02 00:04:42;;;;;;;43.40;31.60;;;;;;;9.19;79.82;97682.55;112234;1193;61084;-77
2021/11/02 00:07:09;;;;;;;45.70;34.30;;;;;;;9.19;79.81;97681.81;112327;1193;66850;-78
2021/11/02 00:09:40;;;;;;;45.60;33.40;;;;;;;9.20;79.77;97681.42;112164;1187;61035;-77
2021/11/02 00:12:08;;;;;;;44.80;32.10;;;;;;;9.20;79.79;97675.77;112347;1193;62627;-76
2021/11/02 00:14:34;;;;;;;46.20;32.90;;;;;;;9.20;79.66;97673.29;112321;1192;61372;-76
2021/11/02 00:17:15;;;;;;;43.10;30.70;;;;;;;9.20;79.72;97671.80;112549;1193;61054;-77
2021/11/02 00:19:44;;;;;;;43.50;31.60;;;;;;;9.22;79.67;97667.98;112281;1192;65906;-76
2021/11/02 00:22:16;;;;;;;45.00;31.80;;;;;;;9.23;79.77;97661.89;112237;1190;60940;-76
2021/11/02 00:27:23;;;;;;;44.20;30.40;;;;;;;9.23;79.64;97666.48;112254;1192;60982;-78
2021/11/02 00:29:51;;;;;;;45.80;33.20;;;;;;;9.23;79.62;97668.05;112346;1193;60976;-77
2021/11/02 00:32:18;;;;;;;43.10;30.70;;;;;;;9.23;79.53;97674.77;112246;1193;64907;-77
2021/11/02 00:34:44;;;;;;;41.00;31.20;;;;;;;9.23;79.55;97677.77;112241;1192;60909;-76
2021/11/02 00:37:11;;;;;;;44.80;31.90;;;;;;;9.23;79.65;97682.27;112237;1193;65041;-77
2021/11/02 00:39:37;;;;;;;43.40;30.70;;;;;;;9.22;79.71;97679.48;112248;1193;60986;-77
2021/11/02 00:42:04;;;;;;;41.40;31.60;;;;;;;9.21;79.75;97674.05;112513;1193;61042;-76
2021/11/02 00:44:31;;;;;;;40.50;30.40;;;;;;;9.21;79.68;97669.48;112262;1193;66677;-78
2021/11/02 00:46:58;;;;;;;41.70;30.60;;;;;;;9.21;79.61;97666.13;112496;1193;60977;-76
2021/11/02 00:49:25;;;;;;;39.30;29.80;;;;;;;9.20;79.72;97661.70;112294;1193;64959;-76
2021/11/02 00:51:53;;;;;;;40.70;29.60;;;;;;;9.20;79.66;97656.02;112279;1193;61161;-76
2021/11/02 00:54:20;;;;;;;37.20;29.30;;;;;;;9.21;79.60;97651.58;112314;1193;61132;-77
2021/11/02 00:56:47;;;;;;;36.90;28.20;;;;;;;9.22;79.55;97653.30;112236;1192;66152;-77
2021/11/02 00:59:13;;;;;;;38.50;28.90;;;;;;;9.22;79.50;97651.27;112253;1192;61713;-78
2021/11/02 01:01:40;;;;;;;38.40;28.80;;;;;;;9.23;79.42;97648.74;112218;1193;63991;-78
2021/11/02 01:04:08;;;;;;;38.50;30.20;;;;;;;9.24;79.51;97647.08;112262;1193;61059;-76
2021/11/02 01:06:37;;;;;;;40.80;29.30;;;;;;;9.25;79.42;97645.63;112300;1192;61014;-78
2021/11/02 01:09:06;;;;;;;40.50;29.60;;;;;;;9.26;79.37;97648.20;112310;1193;64657;-78
2021/11/02 01:11:33;;;;;;;38.80;29.50;;;;;;;9.26;79.35;97644.31;112285;1192;60973;-76
2021/11/02 01:14:00;;;;;;;37.50;29.50;;;;;;;9.25;79.36;97638.83;112255;1187;64030;-77
2021/11/02 01:16:28;;;;;;;38.00;27.70;;;;;;;9.25;79.40;97637.98;112277;1193;61061;-76
2021/11/02 01:18:55;;;;;;;37.30;27.20;;;;;;;9.24;79.38;97634.48;112314;1192;61053;-76
2021/11/02 01:21:22;;;;;;;36.00;27.70;;;;;;;9.23;79.44;97627.48;112245;1193;66005;-76
2021/11/02 01:23:49;;;;;;;36.00;28.20;;;;;;;9.22;79.41;97628.09;112265;1192;61052;-77
2021/11/02 01:26:18;;;;;;;34.50;27.70;;;;;;;9.21;79.38;97635.98;112473;1193;64000;-78
2021/11/02 01:28:44;;;;;;;36.80;28.50;;;;;;;9.20;79.40;97636.91;112265;1193;61148;-77
2021/11/02 01:31:11;;;;;;;39.10;28.80;;;;;;;9.19;79.33;97637.70;112295;1192;61014;-78
2021/11/02 01:33:39;;;;;;;36.70;27.60;;;;;;;9.19;79.30;97639.86;112239;1193;66119;-77
2021/11/02 01:36:07;;;;;;;38.80;31.20;;;;;;;9.18;79.39;97638.86;112314;1193;61023;-77
2021/11/02 01:38:34;;;;;;;38.90;29.90;;;;;;;9.18;79.28;97637.95;112511;1192;64981;-77
2021/11/02 01:41:02;;;;;;;170.10;115.90;;;;;;;9.18;79.33;97637.48;112284;1193;61154;-77
2021/11/02 01:43:29;;;;;;;70.50;53.30;;;;;;;9.17;79.27;97632.42;112511;1192;61062;-77
2021/11/02 01:45:56;;;;;;;45.00;34.70;;;;;;;9.16;79.28;97626.45;112284;1193;66127;-77
2021/11/02 01:48:24;;;;;;;39.70;30.60;;;;;;;9.16;79.22;97618.83;112492;1192;60987;-77
2021/11/02 01:50:52;;;;;;;41.80;30.70;;;;;;;9.15;79.12;97607.77;112265;1192;62672;-77
2021/11/02 01:53:19;;;;;;;38.60;30.40;;;;;;;9.14;79.07;97603.45;112448;1193;61049;-79
2021/11/02 01:55:46;;;;;;;39.30;29.60;;;;;;;9.12;79.00;97600.59;112266;1192;60968;-78
2021/11/02 01:58:15;;;;;;;40.70;29.70;;;;;;;9.11;78.94;97597.84;112263;1192;66984;-77
2021/11/02 02:00:55;;;;;;;41.80;30.70;;;;;;;9.10;78.98;97593.16;112492;1192;61321;-77
2021/11/02 02:03:50;;;;;;;43.30;30.70;;;;;;;9.09;78.97;97591.79;112342;1193;63986;-78
2021/11/02 02:06:40;;;;;;;40.20;31.10;;;;;;;9.08;78.97;97588.84;112314;1193;61013;-78
2021/11/02 02:09:21;;;;;;;40.30;30.20;;;;;;;9.08;78.84;97586.06;112371;1193;61062;-77
2021/11/02 02:12:10;;;;;;;38.00;29.60;;;;;;;9.06;78.87;97583.16;112290;1192;66116;-78
2021/11/02 02:14:47;;;;;;;39.20;29.50;;;;;;;9.06;78.87;97586.96;112299;1185;61091;-78
2021/11/02 02:17:22;;;;;;;40.30;31.50;;;;;;;9.04;78.79;97585.88;112276;1193;64012;-77
2021/11/02 02:19:58;;;;;;;42.30;33.20;;;;;;;9.03;78.80;97588.07;112280;1192;61091;-76
2021/11/02 02:23:15;;;;;;;40.60;32.30;;;;;;;9.02;78.76;97583.37;112334;1194;60922;-78
2021/11/02 02:26:09;;;;;;;45.60;31.90;;;;;;;9.00;78.59;97585.09;112297;1193;66998;-77
2021/11/02 02:28:38;;;;;;;42.90;31.70;;;;;;;8.99;78.63;97585.02;112537;1193;60981;-77
2021/11/02 02:31:08;;;;;;;44.00;31.80;;;;;;;8.98;78.61;97581.71;112290;1193;64001;-76
2021/11/02 02:33:39;;;;;;;42.70;32.80;;;;;;;8.97;78.66;97578.23;112316;1193;60989;-77
2021/11/02 02:36:07;;;;;;;44.20;31.20;;;;;;;8.96;78.69;97577.47;112316;1193;61050;-76
2021/11/02 02:38:38;;;;;;;44.10;34.40;;;;;;;8.95;78.66;97577.70;112323;1177;66819;-76
2021/11/02 02:41:05;;;;;;;;;;;;;;;8.94;78.70;97572.10;112501;1192;61420;-76
2021/11/02 02:43:36;;;;;;;42.90;32.10;;;;;;;8.93;78.73;97576.64;112251;1193;64057;-77
2021/11/02 02:46:04;;;;;;;44.10;33.10;;;;;;;8.92;78.79;97576.91;112187;1193;61032;-76
2021/11/02 02:48:33;;;;;;;45.80;33.70;;;;;;;8.91;78.84;97575.92;112547;1191;61017;-76
2021/11/02 02:51:02;;;;;;;50.50;38.00;;;;;;;8.90;78.92;97579.18;112302;1193;64689;-77
2021/11/02 02:53:30;;;;;;;45.90;35.50;;;;;;;8.89;78.83;97576.59;112355;1192;61078;-76
2021/11/02 02:56:00;;;;;;;44.70;34.50;;;;;;;8.88;78.86;97568.93;112290;1193;64049;-77
2021/11/02 02:58:36;;;;;;;42.60;34.00;;;;;;;8.88;78.91;97571.73;112354;1192;61058;-76
2021/11/02 03:01:12;;;;;;;43.80;32.70;;;;;;;8.88;78.97;97568.79;112481;1193;60991;-77
2021/11/02 03:03:45;;;;;;;45.20;34.50;;;;;;;8.87;79.06;97568.49;112333;1193;66972;-76
2021/11/02 03:06:15;;;;;;;43.90;34.40;;;;;;;8.86;79.12;97566.62;112480;1193;60926;-78
2021/11/02 03:08:42;;;;;;;47.40;34.80;;;;;;;8.85;79.05;97569.86;112191;1192;64056;-77
2021/11/02 03:11:11;;;;;;;44.50;34.20;;;;;;;8.85;79.11;97575.22;112278;1193;61056;-77
2021/11/02 03:13:43;;;;;;;42.70;34.90;;;;;;;8.84;79.25;97577.20;112269;1193;59952;-77
2021/11/02 03:16:14;;;;;;;45.10;33.70;;;;;;;8.83;79.38;97576.58;112269;1193;64950;-78
2021/11/02 03:54:53;;;;;;;50.00;37.00;;;;;;;8.56;81.15;97549.05;112284;1193;61061;-77
2021/11/02 04:00:19;;;;;;;55.90;42.00;;;;;;;8.47;82.05;97541.28;112363;1193;60950;-77
2021/11/02 04:27:56;;;;;;;52.80;41.20;;;;;;;8.14;84.89;97528.51;112338;1192;61065;-77
2021/11/02 05:57:01;;;;;;;53.00;40.80;;;;;;;7.65;92.65;97478.12;111796;1196;61158;-81
2021/11/02 05:59:39;;;;;;;52.90;41.10;;;;;;;7.65;92.72;97481.34;111903;1196;60996;-83
2021/11/02 06:29:37;;;;;;;50.00;39.30;;;;;;;7.72;93.97;97504.13;112302;1192;66988;-75
2021/11/02 06:32:31;;;;;;;52.20;39.80;;;;;;;7.71;94.02;97507.23;112519;1193;61020;-74
2021/11/02 06:35:46;;;;;;;53.60;39.70;;;;;;;7.71;94.03;97512.35;112291;1193;65061;-77
2021/11/02 06:51:14;;;;;;;51.70;38.30;;;;;;;7.84;94.14;97545.80;112288;1192;61078;-75
2021/11/02 08:47:32;;;;;;;61.30;45.80;;;;;;;8.52;95.96;97543.14;112514;1192;61081;-75
2021/11/02 08:50:01;;;;;;;54.90;44.50;;;;;;;8.53;96.05;97540.76;112315;1192;66045;-75
2021/11/02 08:52:28;;;;;;;57.30;46.20;;;;;;;8.55;96.06;97542.08;112309;1192;61041;-75
2021/11/02 08:54:56;;;;;;;54.50;43.40;;;;;;;8.55;96.02;97545.02;112256;1193;62655;-75
2021/11/02 08:57:24;;;;;;;54.30;43.50;;;;;;;8.56;96.03;97546.36;112301;1193;61033;-75
2021/11/02 08:59:52;;;;;;;53.10;43.90;;;;;;;8.58;96.15;97547.45;112522;1192;60982;-75
2021/11/02 09:02:23;;;;;;;59.70;46.30;;;;;;;8.61;96.06;97546.58;112265;1192;66096;-75
2021/11/02 09:05:01;;;;;;;53.30;44.10;;;;;;;8.64;96.03;97546.45;112267;1193;61030;-75
2021/11/02 09:07:30;;;;;;;56.50;44.10;;;;;;;8.68;95.98;97546.64;112236;1193;62656;-75
2021/11/02 09:09:59;;;;;;;54.60;44.70;;;;;;;8.71;95.97;97546.36;112533;1184;60949;-75
2021/11/02 09:12:32;;;;;;;59.90;46.60;;;;;;;8.73;95.85;97543.94;112288;1193;60937;-76
2021/11/02 09:15:04;;;;;;;56.80;46.60;;;;;;;8.73;95.85;97544.61;112499;1193;65989;-83
2021/11/02 09:17:41;;;;;;;59.80;46.70;;;;;;;8.75;95.91;97540.38;112651;1192;61173;-74
2021/11/02 09:20:09;;;;;;;55.90;45.20;;;;;;;8.79;95.99;97539.55;112570;1192;62755;-84
2021/11/02 09:22:35;;;;;;;62.40;49.80;;;;;;;8.83;96.13;97540.30;112568;1192;61011;-83
2021/11/02 09:25:02;;;;;;;55.80;46.60;;;;;;;8.85;96.09;97541.17;112704;1191;60975;-86
2021/11/02 09:27:29;;;;;;;57.30;47.90;;;;;;;8.86;96.01;97540.02;112553;1192;66080;-84
2021/11/02 09:29:56;;;;;;;58.40;45.90;;;;;;;8.88;95.96;97537.06;112679;1193;61039;-84
2021/11/02 09:32:24;;;;;;;58.60;50.00;;;;;;;8.88;95.91;97529.80;112671;1192;62666;-86
2021/11/02 09:34:53;;;;;;;58.50;48.10;;;;;;;8.89;95.99;97528.83;112640;1193;61045;-83
2021/11/02 09:37:31;;;;;;;56.20;45.60;;;;;;;8.92;96.05;97526.61;112739;1193;61055;-85
2021/11/02 09:40:07;;;;;;;53.70;43.30;;;;;;;8.94;96.10;97527.11;112619;1192;64638;-85
2021/11/02 09:42:50;;;;;;;53.30;44.50;;;;;;;8.96;96.07;97529.25;112463;1193;61326;-87
2021/11/02 09:45:24;;;;;;;51.00;43.80;;;;;;;9.00;96.19;97536.19;112708;1192;64170;-84
2021/11/02 09:48:38;;;;;;;54.90;46.20;;;;;;;9.03;96.14;97534.35;112656;1192;61058;-85
2021/11/02 09:54:50;;;;;;;61.20;50.40;;;;;;;9.10;96.03;97529.15;112998;1192;64520;-87
2021/11/02 09:57:45;;;;;;;64.80;51.50;;;;;;;9.14;96.00;97532.06;112659;1192;61052;-87
2021/11/02 10:00:35;;;;;;;65.70;53.40;;;;;;;9.17;96.09;97532.25;112597;1191;62578;-83
2021/11/02 10:03:10;;;;;;;63.40;53.20;;;;;;;9.20;96.19;97529.33;112645;1193;60997;-85
2021/11/02 10:05:54;;;;;;;68.30;54.40;;;;;;;9.23;96.16;97531.76;112716;1192;61041;-85
2021/11/02 10:08:46;;;;;;;66.30;52.50;;;;;;;9.25;96.14;97530.34;112644;1191;66027;-82
2021/11/02 10:11:25;;;;;;;58.50;49.80;;;;;;;9.27;96.16;97529.70;112313;1193;61075;-76
2021/11/02 10:13:59;;;;;;;60.20;50.70;;;;;;;9.27;96.25;97527.91;112346;1193;63974;-76
2021/11/02 10:17:05;;;;;;;64.40;51.80;;;;;;;9.29;96.29;97521.20;112323;1192;61056;-76
2021/11/02 10:20:04;;;;;;;67.80;55.60;;;;;;;9.37;96.19;97519.77;112353;1192;61522;-75
2021/11/02 10:23:25;;;;;;;59.70;51.60;;;;;;;9.42;96.10;97521.42;112135;1193;74976;-75
2021/11/02 10:26:13;;;;;;;64.20;52.00;;;;;;;9.44;96.06;97518.47;111739;1196;61141;-75
2021/11/02 10:28:58;;;;;;;60.30;51.10;;;;;;;9.44;96.18;97522.02;112290;1193;65001;-75
2021/11/02 10:31:38;;;;;;;68.40;55.80;;;;;;;9.43;96.22;97520.84;112278;1192;61046;-75
2021/11/02 10:34:11;;;;;;;67.10;56.00;;;;;;;9.44;96.24;97513.29;112296;1193;60937;-75
2021/11/02 10:36:46;;;;;;;65.00;54.90;;;;;;;9.45;96.27;97515.71;112305;1193;66038;-74
2021/11/02 10:39:35;;;;;;;67.30;53.90;;;;;;;9.47;96.29;97511.48;112284;1192;60822;-75
2021/11/02 10:42:29;;;;;;;60.80;50.50;;;;;;;9.52;96.26;97511.61;112160;1192;62790;-74
2021/11/02 10:45:01;;;;;;;55.60;46.40;;;;;;;9.55;96.14;97513.61;112178;1193;61036;-76
2021/11/02 10:47:43;;;;;;;55.10;44.30;;;;;;;9.56;96.12;97510.00;112201;1193;61213;-75
2021/11/02 10:50:12;;;;;;;54.70;44.10;;;;;;;9.58;96.15;97510.33;112338;1193;67076;-77
2021/11/02 10:52:41;;;;;;;57.60;49.50;;;;;;;9.61;96.15;97510.05;112326;1193;61504;-77
2021/11/02 10:55:37;;;;;;;53.50;45.60;;;;;;;9.64;96.14;97509.61;112326;1193;63888;-76
2021/11/02 10:58:10;;;;;;;54.10;44.90;;;;;;;9.68;96.11;97509.63;112239;1193;61053;-76
2021/11/02 11:00:36;;;;;;;51.60;44.30;;;;;;;9.74;96.13;97511.42;112300;1192;61027;-75
2021/11/02 11:03:08;;;;;;;48.50;40.50;;;;;;;9.79;96.19;97510.48;112350;1192;64657;-75
2021/11/02 11:05:36;;;;;;;50.60;41.70;;;;;;;9.80;96.01;97507.19;112314;1193;61058;-76
2021/11/02 11:08:04;;;;;;;50.80;42.40;;;;;;;9.83;95.91;97505.53;112194;1186;64028;-76
2021/11/02 11:10:31;;;;;;;52.70;41.70;;;;;;;9.87;96.03;97510.79;112302;1192;61075;-76
2021/11/02 11:13:00;;;;;;;50.00;42.00;;;;;;;9.91;96.12;97514.05;112322;1192;61037;-76
2021/11/02 11:15:32;;;;;;;52.70;43.70;;;;;;;9.94;96.15;97511.84;112233;1193;64672;-76
2021/11/02 11:18:07;;;;;;;53.10;43.50;;;;;;;9.97;96.18;97512.26;112271;1193;61489;-76
2021/11/02 11:20:37;;;;;;;51.40;43.20;;;;;;;10.02;96.26;97515.05;112319;1192;65047;-75
2021/11/02 11:23:07;;;;;;;55.10;44.30;;;;;;;10.04;96.42;97510.71;112175;1193;61128;-75
2021/11/02 11:25:50;;;;;;;53.80;46.30;;;;;;;10.07;96.35;97507.80;112351;1193;60963;-77
2021/11/02 11:28:18;;;;;;;55.00;48.20;;;;;;;10.11;96.27;97504.27;112315;1193;65931;-75
2021/11/02 11:30:47;;;;;;;54.50;47.50;;;;;;;10.15;96.22;97510.90;112333;1192;61036;-75
2021/11/02 11:33:19;;;;;;;59.20;49.10;;;;;;;10.15;96.17;97509.48;112276;1192;64086;-74
2021/11/02 11:35:47;;;;;;;57.90;48.90;;;;;;;10.13;96.23;97505.19;112302;1193;60989;-74
2021/11/02 11:38:15;;;;;;;59.10;49.40;;;;;;;10.12;96.30;97508.11;112335;1188;61035;-75
2021/11/02 11:40:44;;;;;;;54.90;47.90;;;;;;;10.10;96.28;97503.10;112363;1193;65932;-74
2021/11/02 11:43:14;;;;;;;59.20;49.00;;;;;;;10.08;96.18;97495.89;112311;1193;60911;-76
2021/11/02 11:45:43;;;;;;;57.50;48.10;;;;;;;10.07;96.15;97495.45;112221;1193;63891;-75
2021/11/02 11:48:12;;;;;;;55.30;47.20;;;;;;;10.05;96.24;97493.98;112339;1193;60974;-76
2021/11/02 11:50:41;;;;;;;58.40;48.70;;;;;;;10.05;96.50;97493.84;112314;1193;61071;-75
2021/11/02 11:53:09;;;;;;;54.60;47.60;;;;;;;10.03;96.61;97494.33;112289;1192;66987;-75
2021/11/02 11:55:42;;;;;;;59.90;51.70;;;;;;;10.02;96.71;97496.91;112314;1192;60960;-74
2021/11/02 11:58:14;;;;;;;68.40;55.80;;;;;;;10.01;96.59;97494.88;112294;1192;63928;-75
2021/11/02 12:00:47;;;;;;;71.90;56.70;;;;;;;9.98;96.57;97494.10;112276;1193;61095;-77
2021/11/02 12:03:40;;;;;;;70.50;56.90;;;;;;;9.94;96.62;97493.73;112323;1193;61042;-75
2021/11/02 12:06:16;;;;;;;67.20;54.90;;;;;;;9.93;96.64;97497.02;112357;1192;66049;-76
2021/11/02 12:09:06;;;;;;;68.00;59.00;;;;;;;9.94;96.86;97499.61;112309;1193;61055;-76
2021/11/02 12:11:34;;;;;;;67.80;55.50;;;;;;;9.94;96.97;97498.52;112304;1193;64147;-75
2021/11/02 12:14:10;;;;;;;68.70;57.50;;;;;;;9.98;97.02;97494.77;112310;1192;61020;-75
2021/11/02 12:16:42;;;;;;;66.20;54.00;;;;;;;10.04;96.88;97494.26;112315;1192;61030;-75
2021/11/02 12:19:23;;;;;;;62.40;50.10;;;;;;;10.07;96.92;97496.98;112135;1193;67454;-77
2021/11/02 12:22:02;;;;;;;59.90;51.20;;;;;;;10.11;96.81;97495.40;112165;1193;60989;-74
2021/11/02 12:24:34;;;;;;;59.00;48.90;;;;;;;10.13;96.81;97498.65;112312;1193;64140;-74
2021/11/02 12:27:15;;;;;;;59.20;47.30;;;;;;;10.15;96.87;97496.89;112176;1193;61037;-75
2021/11/02 12:29:49;;;;;;;57.80;47.00;;;;;;;10.19;96.77;97494.05;112336;1193;61042;-74
2021/11/02 12:32:21;;;;;;;54.20;46.90;;;;;;;10.22;96.73;97495.67;112278;1192;66022;-75
2021/11/02 12:35:04;;;;;;;55.20;45.30;;;;;;;10.26;96.75;97501.39;112293;1193;61044;-75
2021/11/02 12:37:35;;;;;;;54.20;44.70;;;;;;;10.29;96.71;97505.41;112177;1193;65017;-74
2021/11/02 12:40:17;;;;;;;54.70;45.20;;;;;;;10.35;96.70;97498.30;112328;1193;60989;-75
2021/11/02 12:42:44;;;;;;;55.90;45.60;;;;;;;10.43;96.51;97499.48;112353;1192;61161;-75
2021/11/02 12:45:12;;;;;;;55.50;46.40;;;;;;;10.51;96.35;97503.92;112382;1192;65918;-81
2021/11/02 12:47:42;;;;;;;56.00;48.50;;;;;;;10.61;96.44;97500.91;112828;1192;61019;-84
2021/11/02 12:50:09;;;;;;;56.70;48.10;;;;;;;10.68;96.29;97502.16;112716;1191;64001;-87
2021/11/02 12:52:39;;;;;;;52.80;46.90;;;;;;;10.74;96.20;97498.45;112655;1193;61171;-86
2021/11/02 12:55:10;;;;;;;53.50;47.60;;;;;;;10.83;96.09;97502.29;112722;1193;60940;-89
2021/11/02 12:57:49;;;;;;;51.00;44.50;;;;;;;10.90;95.86;97504.42;112656;1192;66055;-87
2021/11/02 13:00:26;;;;;;;52.30;45.30;;;;;;;10.97;95.63;97503.48;112781;1192;61585;-89
2021/11/02 13:03:02;;;;;;;55.90;47.70;;;;;;;11.00;95.62;97503.35;112731;1192;62781;-86
2021/11/02 13:05:30;;;;;;;50.30;44.30;;;;;;;11.08;95.77;97504.05;112651;1192;61055;-74
2021/11/02 13:08:04;;;;;;;54.40;46.50;;;;;;;11.12;95.59;97502.55;112328;1192;61112;-74
2021/11/02 13:10:32;;;;;;;50.00;43.60;;;;;;;11.08;95.17;97503.92;112216;1193;66115;-74
2021/11/02 13:13:10;;;;;;;52.80;43.60;;;;;;;10.99;95.04;97504.91;112314;1192;61078;-74
2021/11/02 13:15:49;;;;;;;51.50;45.00;;;;;;;10.89;95.22;97507.21;112324;1192;63806;-74
2021/11/02 13:18:29;;;;;;;48.40;42.40;;;;;;;10.78;95.21;97514.46;112249;1193;61053;-74
2021/11/02 13:21:29;;;;;;;51.30;43.40;;;;;;;10.66;95.26;97518.05;112291;1192;61033;-74
2021/11/02 13:24:04;;;;;;;45.70;40.60;;;;;;;10.57;95.45;97518.32;112144;1193;67034;-75
2021/11/02 13:26:32;;;;;;;41.50;35.00;;;;;;;10.53;95.69;97519.02;112230;1193;61061;-75
2021/11/02 13:29:22;;;;;;;45.00;35.50;;;;;;;10.49;95.48;97520.27;112335;1192;63991;-76
2021/11/02 13:31:50;;;;;;;39.00;33.90;;;;;;;10.47;95.52;97520.06;112260;1192;60988;-77
2021/11/02 13:34:34;;;;;;;31.90;27.30;;;;;;;10.44;95.57;97520.52;112348;1192;61535;-77
2021/11/02 13:37:14;;;;;;;25.20;22.60;;;;;;;10.37;95.06;97524.54;112335;1192;66112;-76
2021/11/02 13:39:51;;;;;;;27.50;24.40;;;;;;;10.23;95.02;97525.22;112335;1192;61381;-74
2021/11/02 13:42:18;;;;;;;22.20;18.30;;;;;;;10.15;95.11;97523.48;112270;1192;63872;-77
2021/11/02 13:44:47;;;;;;;19.50;17.40;;;;;;;10.08;95.27;97525.63;112315;1192;60953;-77
2021/11/02 13:47:15;;;;;;;15.10;12.70;;;;;;;10.07;95.44;97526.80;112309;1192;61029;-76
2021/11/02 13:49:41;;;;;;;14.00;12.60;;;;;;;10.05;95.24;97527.16;112249;1192;64703;-76
2021/11/02 13:52:10;;;;;;;13.30;12.00;;;;;;;10.01;95.30;97528.40;112293;1183;61016;-78
2021/11/02 13:54:38;;;;;;;13.50;12.10;;;;;;;9.96;95.05;97523.88;112313;1192;63871;-76
2021/11/02 13:57:05;;;;;;;13.10;11.70;;;;;;;9.90;94.89;97517.52;112141;1193;61059;-76
2021/11/02 13:59:31;;;;;;;14.00;10.80;;;;;;;9.84;94.93;97516.21;112304;1193;61403;-77
2021/11/02 14:02:00;;;;;;;10.80;9.70;;;;;;;9.79;94.98;97519.89;112289;1193;64929;-76
2021/11/02 14:04:41;;;;;;;10.50;9.50;;;;;;;9.72;94.97;97516.81;112257;1192;61780;-77
2021/11/02 14:07:35;;;;;;;11.80;10.70;;;;;;;9.63;95.07;97514.01;112318;1193;63960;-77
2021/11/02 14:10:10;;;;;;;12.20;10.60;;;;;;;9.58;95.15;97513.02;112260;1192;61065;-77
2021/11/02 14:12:40;;;;;;;12.80;11.60;;;;;;;9.54;95.25;97512.48;112295;1192;60991;-77
2021/11/02 14:15:09;;;;;;;12.30;11.00;;;;;;;9.53;95.41;97512.58;112277;1192;66986;-76
2021/11/02 14:17:39;;;;;;;15.10;11.70;;;;;;;9.50;95.46;97514.39;112311;1192;61158;-76
2021/11/02 14:20:06;;;;;;;12.40;11.20;;;;;;;9.48;95.46;97516.05;112344;1193;63698;-76
2021/11/02 14:22:52;;;;;;;13.80;12.40;;;;;;;9.45;95.58;97516.60;112156;1192;61008;-76
2021/11/02 14:25:30;;;;;;;13.50;12.20;;;;;;;9.43;95.59;97516.90;112358;1192;61029;-75
2021/11/02 14:27:56;;;;;;;13.60;12.10;;;;;;;9.43;95.71;97524.25;112325;1193;66166;-76
2021/11/02 14:30:32;;;;;;;15.40;14.00;;;;;;;9.43;95.92;97525.45;112324;1192;61002;-76
2021/11/02 14:33:03;;;;;;;14.10;12.80;;;;;;;9.48;96.24;97520.06;112263;1192;62967;-77
2021/11/02 14:35:44;;;;;;;14.50;13.10;;;;;;;9.55;95.97;97518.27;112302;1192;60998;-76
2021/11/02 14:38:19;;;;;;;14.50;13.10;;;;;;;9.54;95.93;97520.33;112289;1192;60970;-76
2021/11/02 14:40:51;;;;;;;13.50;12.20;;;;;;;9.52;95.95;97520.14;112203;1192;64815;-77
2021/11/02 14:43:22;;;;;;;15.40;14.00;;;;;;;9.51;95.94;97524.25;112321;1192;60918;-77
2021/11/02 14:46:19;;;;;;;15.90;14.10;;;;;;;9.51;96.01;97528.47;112311;1193;63953;-76
2021/11/02 14:48:51;;;;;;;18.60;16.70;;;;;;;9.53;96.04;97526.80;112328;1192;61011;-76
2021/11/02 14:51:20;;;;;;;21.50;19.30;;;;;;;9.53;96.05;97524.77;112354;1193;61053;-76
2021/11/02 14:53:48;;;;;;;22.70;20.30;;;;;;;9.51;95.95;97525.15;112286;1192;67351;-76
2021/11/02 14:56:18;;;;;;;19.30;17.50;;;;;;;9.45;95.81;97529.58;112326;1193;61042;-76
2021/11/02 14:58:46;;;;;;;19.10;17.20;;;;;;;9.40;95.93;97531.52;112281;1193;64006;-76
2021/11/02 15:01:12;;;;;;;16.10;14.40;;;;;;;9.36;95.86;97532.27;112167;1186;61048;-76
2021/11/02 15:04:00;;;;;;;17.80;15.90;;;;;;;9.34;95.94;97534.95;112296;1192;61058;-76
2021/11/02 15:06:56;;;;;;;17.50;15.70;;;;;;;9.34;96.16;97530.88;112277;1193;66065;-76
2021/11/02 15:09:27;;;;;;;18.30;16.50;;;;;;;9.33;96.37;97532.70;112311;1193;61062;-76
2021/11/02 15:11:54;;;;;;;21.50;19.40;;;;;;;9.31;96.34;97529.33;112279;1193;62674;-76
2021/11/02 15:14:24;;;;;;;19.00;17.10;;;;;;;9.30;96.48;97524.52;112308;1192;61052;-76
2021/11/02 15:17:13;;;;;;;21.30;19.20;;;;;;;9.32;96.42;97526.22;112326;1192;61042;-76
2021/11/02 15:19:41;;;;;;;23.10;20.80;;;;;;;9.33;96.41;97526.84;112298;1193;66019;-76
2021/11/02 15:22:16;;;;;;;26.40;23.60;;;;;;;9.36;96.56;97529.94;112326;1193;61036;-75
2021/11/02 15:24:46;;;;;;;25.00;22.50;;;;;;;9.39;96.54;97530.91;112318;1193;64059;-75
2021/11/02 15:27:17;;;;;;;26.20;23.60;;;;;;;9.36;96.38;97533.38;112327;1193;60998;-75
2021/11/02 15:30:06;;;;;;;26.60;24.00;;;;;;;9.29;96.34;97534.87;112368;1192;60978;-74
2021/11/02 15:32:41;;;;;;;28.70;25.60;;;;;;;9.26;96.58;97538.66;112322;1192;64668;-77
2021/11/02 15:35:11;;;;;;;29.90;26.80;;;;;;;9.24;96.74;97540.55;112301;1193;61495;-76
2021/11/02 15:37:41;;;;;;;28.00;25.10;;;;;;;9.25;96.80;97544.61;112290;1193;65153;-76
2021/11/02 15:40:13;;;;;;;;;;;;;;;9.22;96.72;97542.83;112348;1192;60974;-75
2021/11/02 15:42:47;;;;;;;30.80;27.60;;;;;;;9.15;96.65;97542.37;112252;1192;61423;-75
2021/11/02 15:45:39;;;;;;;37.20;31.40;;;;;;;9.09;96.67;97541.81;112298;1193;64679;-76
2021/11/02 15:48:14;;;;;;;40.10;34.40;;;;;;;9.02;96.67;97550.05;112223;1193;60973;-75
2021/11/02 15:50:52;;;;;;;49.30;40.40;;;;;;;8.97;96.72;97552.25;112277;1192;64966;-77
2021/11/02 15:53:26;;;;;;;51.20;38.60;;;;;;;8.94;96.82;97559.02;112295;1193;61027;-74
2021/11/02 15:55:59;;;;;;;44.10;33.40;;;;;;;8.91;96.88;97563.69;112331;1193;61166;-75
2021/11/02 15:58:27;;;;;;;42.50;32.00;;;;;;;8.88;96.81;97563.23;112314;1192;66155;-76
2021/11/02 16:00:55;;;;;;;31.40;26.60;;;;;;;8.85;96.73;97566.86;112313;1193;69817;-75
2021/11/02 16:03:29;;;;;;;40.70;27.70;;;;;;;8.83;96.78;97568.50;112290;1192;64992;-77
2021/11/02 16:05:56;;;;;;;30.40;23.30;;;;;;;8.78;96.75;97569.70;112310;1193;61059;-77
2021/11/02 16:08:24;;;;;;;29.90;22.80;;;;;;;8.76;96.77;97571.33;112295;1192;61061;-75
2021/11/02 16:10:52;;;;;;;24.90;20.00;;;;;;;8.73;96.70;97574.53;112353;1192;64661;-76
2021/11/02 16:13:26;;;;;;;20.90;17.70;;;;;;;8.68;96.60;97576.24;112340;1193;61026;-75
2021/11/02 16:15:55;;;;;;;20.80;17.30;;;;;;;8.63;96.66;97576.64;112310;1193;64108;-75
2021/11/02 16:18:25;;;;;;;20.20;16.70;;;;;;;8.59;96.75;97578.73;112307;1192;61053;-76
2021/11/02 16:20:53;;;;;;;25.60;20.50;;;;;;;8.55;96.84;97580.31;112339;1192;61065;-76
2021/11/02 16:23:22;;;;;;;21.00;18.40;;;;;;;8.54;96.94;97590.26;112276;1193;74641;-76
2021/11/02 16:25:58;;;;;;;24.50;19.50;;;;;;;8.53;96.95;97590.55;112177;1193;60939;-76
2021/11/02 16:28:29;;;;;;;23.00;19.80;;;;;;;8.52;96.99;97592.94;112288;1193;63969;-76
2021/11/02 16:31:04;;;;;;;23.00;18.00;;;;;;;8.48;97.09;97591.99;112281;1192;61050;-77
2021/11/02 16:33:37;;;;;;;27.20;20.10;;;;;;;8.45;97.16;97596.52;112226;1193;60979;-74
2021/11/02 16:36:28;;;;;;;30.00;24.40;;;;;;;8.42;97.16;97602.05;112302;1192;64664;-77
2021/11/02 16:39:14;;;;;;;25.20;21.70;;;;;;;8.35;97.22;97600.61;112136;1193;61387;-76
2021/11/02 16:41:42;;;;;;;28.00;21.60;;;;;;;8.32;97.48;97602.67;112294;1193;64068;-77
2021/11/02 16:44:11;;;;;;;23.80;20.10;;;;;;;8.27;97.49;97606.92;112310;1193;61011;-77
2021/11/02 16:46:44;;;;;;;30.10;23.70;;;;;;;8.25;97.57;97610.95;112384;1192;61043;-74
2021/11/02 16:49:23;;;;;;;26.30;23.30;;;;;;;8.26;97.63;97614.65;112418;1192;64674;-76
2021/11/02 16:51:54;;;;;;;30.00;24.50;;;;;;;8.25;97.78;97617.91;112168;1193;61059;-76
2021/11/02 16:54:25;;;;;;;28.50;25.50;;;;;;;8.22;97.91;97617.58;112294;1193;62639;-78
2021/11/02 16:57:06;;;;;;;29.50;24.60;;;;;;;8.21;98.05;97617.16;112285;1192;60998;-77
2021/11/02 17:00:11;;;;;;;37.20;30.00;;;;;;;8.20;98.12;97617.30;112260;1192;61097;-77